sensor_id;sensor_type;location;lat;lon;timestamp;P1;durP1;ratioP1;P2;durP2;ratioP2
5040;SDS011;2539;52.568;13.364;2023-05-07T00:00:51;12.60;;;9.60;;
5040;SDS011;2539;52.568;13.364;2023-05-07T00:03:17;17.23;;;10.20;;
5040;SDS011;2539;52.568;13.364;2023-05-07T00:05:44;14.30;;;9.83;;
5040;SDS011;2539;52.568;13.364;2023-05-07T00:08:10;11.70;;;9.90;;
5040;SDS011;2539;52.568;13.364;2023-05-07T00:10:37;12.53;;;9.90;;
5040;SDS011;2539;52.568;13.364;2023-05-07T00:13:03;11.70;;;9.77;;
5040;SDS011;2539;52.568;13.364;2023-05-07T00:15:29;11.53;;;10.30;;
5040;SDS011;2539;52.568;13.364;2023-05-07T00:17:56;10.33;;;9.33;;
5040;SDS011;2539;52.568;13.364;2023-05-07T00:20:24;13.17;;;10.10;;
5040;SDS011;2539;52.568;13.364;2023-05-07T00:22:50;13.10;;;11.00;;
5040;SDS011;2539;52.568;13.364;2023-05-07T00:25:17;14.50;;;10.50;;
5040;SDS011;2539;52.568;13.364;2023-05-07T00:27:48;12.40;;;10.80;;
5040;SDS011;2539;52.568;13.364;2023-05-07T00:30:13;14.43;;;9.93;;
5040;SDS011;2539;52.568;13.364;2023-05-07T00:32:39;13.80;;;10.50;;
5040;SDS011;2539;52.568;13.364;2023-05-07T00:35:05;10.33;;;9.23;;
5040;SDS011;2539;52.568;13.364;2023-05-07T00:37:32;11.73;;;8.97;;
5040;SDS011;2539;52.568;13.364;2023-05-07T00:39:58;10.07;;;9.00;;
5040;SDS011;2539;52.568;13.364;2023-05-07T00:42:25;12.33;;;8.77;;
5040;SDS011;2539;52.568;13.364;2023-05-07T00:44:51;13.10;;;10.37;;
5040;SDS011;2539;52.568;13.364;2023-05-07T00:47:17;14.50;;;11.07;;
5040;SDS011;2539;52.568;13.364;2023-05-07T00:49:44;11.13;;;9.00;;
5040;SDS011;2539;52.568;13.364;2023-05-07T00:52:11;11.97;;;9.80;;
5040;SDS011;2539;52.568;13.364;2023-05-07T00:54:41;11.07;;;9.13;;
5040;SDS011;2539;52.568;13.364;2023-05-07T00:57:09;12.00;;;9.33;;
5040;SDS011;2539;52.568;13.364;2023-05-07T00:59:37;10.83;;;9.73;;
5040;SDS011;2539;52.568;13.364;2023-05-07T01:02:03;10.50;;;9.13;;
5040;SDS011;2539;52.568;13.364;2023-05-07T01:04:30;11.00;;;9.70;;
5040;SDS011;2539;52.568;13.364;2023-05-07T01:06:56;11.70;;;9.10;;
5040;SDS011;2539;52.568;13.364;2023-05-07T01:09:23;12.70;;;9.73;;
5040;SDS011;2539;52.568;13.364;2023-05-07T01:11:50;11.07;;;9.40;;
5040;SDS011;2539;52.568;13.364;2023-05-07T01:14:18;10.43;;;9.43;;
5040;SDS011;2539;52.568;13.364;2023-05-07T01:16:44;13.73;;;10.37;;
5040;SDS011;2539;52.568;13.364;2023-05-07T01:19:12;10.87;;;9.50;;
5040;SDS011;2539;52.568;13.364;2023-05-07T01:21:40;19.43;;;10.50;;
5040;SDS011;2539;52.568;13.364;2023-05-07T01:24:12;12.37;;;9.57;;
5040;SDS011;2539;52.568;13.364;2023-05-07T01:26:38;11.70;;;9.50;;
5040;SDS011;2539;52.568;13.364;2023-05-07T01:29:05;11.20;;;10.00;;
5040;SDS011;2539;52.568;13.364;2023-05-07T01:31:32;10.27;;;9.13;;
5040;SDS011;2539;52.568;13.364;2023-05-07T01:34:01;11.50;;;9.30;;
5040;SDS011;2539;52.568;13.364;2023-05-07T01:36:29;10.83;;;9.30;;
5040;SDS011;2539;52.568;13.364;2023-05-07T01:38:55;11.30;;;9.27;;
5040;SDS011;2539;52.568;13.364;2023-05-07T01:41:23;9.37;;;8.43;;
5040;SDS011;2539;52.568;13.364;2023-05-07T01:43:50;16.90;;;9.60;;
5040;SDS011;2539;52.568;13.364;2023-05-07T01:46:17;11.37;;;9.13;;
5040;SDS011;2539;52.568;13.364;2023-05-07T01:48:45;11.30;;;8.83;;
5040;SDS011;2539;52.568;13.364;2023-05-07T01:51:12;11.33;;;9.50;;
5040;SDS011;2539;52.568;13.364;2023-05-07T01:56:26;9.50;;;8.40;;
5040;SDS011;2539;52.568;13.364;2023-05-07T01:58:53;11.00;;;9.30;;
5040;SDS011;2539;52.568;13.364;2023-05-07T02:01:19;11.07;;;9.70;;
5040;SDS011;2539;52.568;13.364;2023-05-07T02:03:45;12.03;;;9.93;;
5040;SDS011;2539;52.568;13.364;2023-05-07T02:06:12;10.60;;;8.60;;
5040;SDS011;2539;52.568;13.364;2023-05-07T02:08:38;10.77;;;8.60;;
5040;SDS011;2539;52.568;13.364;2023-05-07T02:11:04;11.03;;;9.50;;
5040;SDS011;2539;52.568;13.364;2023-05-07T02:13:31;9.97;;;8.93;;
5040;SDS011;2539;52.568;13.364;2023-05-07T02:16:00;10.30;;;9.20;;
5040;SDS011;2539;52.568;13.364;2023-05-07T02:18:27;12.33;;;9.17;;
5040;SDS011;2539;52.568;13.364;2023-05-07T02:20:53;10.93;;;8.33;;
5040;SDS011;2539;52.568;13.364;2023-05-07T02:23:19;9.33;;;8.43;;
5040;SDS011;2539;52.568;13.364;2023-05-07T02:25:46;10.80;;;9.07;;
5040;SDS011;2539;52.568;13.364;2023-05-07T02:28:12;13.80;;;9.67;;
5040;SDS011;2539;52.568;13.364;2023-05-07T02:30:38;9.83;;;8.73;;
5040;SDS011;2539;52.568;13.364;2023-05-07T02:33:05;9.27;;;7.90;;
5040;SDS011;2539;52.568;13.364;2023-05-07T02:35:33;10.30;;;9.27;;
5040;SDS011;2539;52.568;13.364;2023-05-07T02:38:00;10.90;;;9.00;;
5040;SDS011;2539;52.568;13.364;2023-05-07T02:40:26;13.10;;;9.90;;
5040;SDS011;2539;52.568;13.364;2023-05-07T02:42:52;10.60;;;9.30;;
5040;SDS011;2539;52.568;13.364;2023-05-07T02:45:19;10.30;;;8.23;;
5040;SDS011;2539;52.568;13.364;2023-05-07T02:47:45;9.70;;;8.70;;
5040;SDS011;2539;52.568;13.364;2023-05-07T02:50:12;8.93;;;7.87;;
5040;SDS011;2539;52.568;13.364;2023-05-07T02:52:38;9.53;;;8.20;;
5040;SDS011;2539;52.568;13.364;2023-05-07T02:55:04;9.87;;;8.30;;
5040;SDS011;2539;52.568;13.364;2023-05-07T02:57:31;10.90;;;9.10;;
5040;SDS011;2539;52.568;13.364;2023-05-07T02:59:57;9.90;;;7.73;;
5040;SDS011;2539;52.568;13.364;2023-05-07T03:02:23;11.47;;;8.20;;
5040;SDS011;2539;52.568;13.364;2023-05-07T03:04:49;9.50;;;8.50;;
5040;SDS011;2539;52.568;13.364;2023-05-07T03:07:15;9.60;;;7.40;;
5040;SDS011;2539;52.568;13.364;2023-05-07T03:09:41;10.53;;;8.10;;
5040;SDS011;2539;52.568;13.364;2023-05-07T03:12:07;9.27;;;8.00;;
5040;SDS011;2539;52.568;13.364;2023-05-07T03:14:33;8.33;;;7.50;;
5040;SDS011;2539;52.568;13.364;2023-05-07T03:16:59;9.03;;;7.60;;
5040;SDS011;2539;52.568;13.364;2023-05-07T03:19:25;9.27;;;8.03;;
5040;SDS011;2539;52.568;13.364;2023-05-07T03:21:52;12.80;;;7.30;;
5040;SDS011;2539;52.568;13.364;2023-05-07T03:24:18;8.77;;;7.83;;
5040;SDS011;2539;52.568;13.364;2023-05-07T03:26:44;9.60;;;7.90;;
5040;SDS011;2539;52.568;13.364;2023-05-07T03:29:10;9.30;;;7.70;;
5040;SDS011;2539;52.568;13.364;2023-05-07T03:31:37;10.20;;;8.10;;
5040;SDS011;2539;52.568;13.364;2023-05-07T03:34:03;9.23;;;7.50;;
5040;SDS011;2539;52.568;13.364;2023-05-07T03:36:30;10.10;;;6.77;;
5040;SDS011;2539;52.568;13.364;2023-05-07T03:38:56;8.13;;;7.33;;
5040;SDS011;2539;52.568;13.364;2023-05-07T03:41:22;12.10;;;7.07;;
5040;SDS011;2539;52.568;13.364;2023-05-07T03:43:48;12.60;;;7.43;;
5040;SDS011;2539;52.568;13.364;2023-05-07T03:46:15;9.10;;;7.70;;
5040;SDS011;2539;52.568;13.364;2023-05-07T03:48:41;8.27;;;7.10;;
5040;SDS011;2539;52.568;13.364;2023-05-07T03:51:07;8.60;;;7.70;;
5040;SDS011;2539;52.568;13.364;2023-05-07T03:53:33;9.53;;;7.97;;
5040;SDS011;2539;52.568;13.364;2023-05-07T03:56:00;8.33;;;7.20;;
5040;SDS011;2539;52.568;13.364;2023-05-07T03:58:26;9.40;;;8.40;;
5040;SDS011;2539;52.568;13.364;2023-05-07T04:00:52;9.93;;;8.63;;
5040;SDS011;2539;52.568;13.364;2023-05-07T04:03:17;8.70;;;7.80;;
5040;SDS011;2539;52.568;13.364;2023-05-07T04:05:43;9.57;;;8.17;;
5040;SDS011;2539;52.568;13.364;2023-05-07T04:08:08;9.70;;;7.17;;
5040;SDS011;2539;52.568;13.364;2023-05-07T04:10:35;8.67;;;7.57;;
5040;SDS011;2539;52.568;13.364;2023-05-07T04:13:00;11.77;;;7.60;;
5040;SDS011;2539;52.568;13.364;2023-05-07T04:15:26;8.47;;;7.67;;
5040;SDS011;2539;52.568;13.364;2023-05-07T04:17:52;9.10;;;7.73;;
5040;SDS011;2539;52.568;13.364;2023-05-07T04:20:17;9.00;;;7.60;;
5040;SDS011;2539;52.568;13.364;2023-05-07T04:22:43;7.50;;;6.73;;
5040;SDS011;2539;52.568;13.364;2023-05-07T04:25:10;7.60;;;6.80;;
5040;SDS011;2539;52.568;13.364;2023-05-07T04:27:36;8.30;;;7.00;;
5040;SDS011;2539;52.568;13.364;2023-05-07T04:30:03;7.43;;;6.63;;
5040;SDS011;2539;52.568;13.364;2023-05-07T04:32:30;9.67;;;7.70;;
5040;SDS011;2539;52.568;13.364;2023-05-07T04:34:56;7.93;;;7.00;;
5040;SDS011;2539;52.568;13.364;2023-05-07T04:37:22;8.27;;;6.60;;
5040;SDS011;2539;52.568;13.364;2023-05-07T04:39:49;8.00;;;7.20;;
5040;SDS011;2539;52.568;13.364;2023-05-07T04:42:15;7.50;;;6.60;;
5040;SDS011;2539;52.568;13.364;2023-05-07T04:44:43;10.13;;;6.70;;
5040;SDS011;2539;52.568;13.364;2023-05-07T04:47:10;7.50;;;6.80;;
5040;SDS011;2539;52.568;13.364;2023-05-07T04:49:37;8.03;;;6.47;;
5040;SDS011;2539;52.568;13.364;2023-05-07T04:52:04;6.87;;;6.07;;
5040;SDS011;2539;52.568;13.364;2023-05-07T04:54:30;8.33;;;6.37;;
5040;SDS011;2539;52.568;13.364;2023-05-07T04:56:57;8.93;;;6.40;;
5040;SDS011;2539;52.568;13.364;2023-05-07T04:59:23;8.27;;;7.13;;
5040;SDS011;2539;52.568;13.364;2023-05-07T05:01:49;8.33;;;6.60;;
5040;SDS011;2539;52.568;13.364;2023-05-07T05:04:16;7.33;;;6.57;;
5040;SDS011;2539;52.568;13.364;2023-05-07T05:06:42;6.93;;;6.27;;
5040;SDS011;2539;52.568;13.364;2023-05-07T05:09:08;6.90;;;6.20;;
5040;SDS011;2539;52.568;13.364;2023-05-07T05:11:34;7.47;;;5.50;;
5040;SDS011;2539;52.568;13.364;2023-05-07T05:14:01;6.13;;;5.53;;
5040;SDS011;2539;52.568;13.364;2023-05-07T05:16:27;6.23;;;5.60;;
5040;SDS011;2539;52.568;13.364;2023-05-07T05:18:53;8.93;;;6.23;;
5040;SDS011;2539;52.568;13.364;2023-05-07T05:21:20;7.03;;;5.97;;
5040;SDS011;2539;52.568;13.364;2023-05-07T05:23:46;6.93;;;5.00;;
5040;SDS011;2539;52.568;13.364;2023-05-07T05:26:13;6.70;;;5.63;;
5040;SDS011;2539;52.568;13.364;2023-05-07T05:28:39;6.00;;;5.40;;
5040;SDS011;2539;52.568;13.364;2023-05-07T05:31:05;6.30;;;5.47;;
5040;SDS011;2539;52.568;13.364;2023-05-07T05:33:32;8.33;;;5.57;;
5040;SDS011;2539;52.568;13.364;2023-05-07T05:35:58;6.00;;;5.50;;
5040;SDS011;2539;52.568;13.364;2023-05-07T05:38:24;7.00;;;5.33;;
5040;SDS011;2539;52.568;13.364;2023-05-07T05:40:51;6.73;;;5.87;;
5040;SDS011;2539;52.568;13.364;2023-05-07T05:43:18;6.33;;;5.73;;
5040;SDS011;2539;52.568;13.364;2023-05-07T05:45:44;6.70;;;5.83;;
5040;SDS011;2539;52.568;13.364;2023-05-07T05:48:11;7.60;;;5.77;;
5040;SDS011;2539;52.568;13.364;2023-05-07T05:50:37;7.80;;;5.83;;
5040;SDS011;2539;52.568;13.364;2023-05-07T05:53:03;7.20;;;5.50;;
5040;SDS011;2539;52.568;13.364;2023-05-07T05:55:30;7.57;;;6.00;;
5040;SDS011;2539;52.568;13.364;2023-05-07T05:57:59;7.47;;;6.03;;
5040;SDS011;2539;52.568;13.364;2023-05-07T06:00:29;6.23;;;5.60;;
5040;SDS011;2539;52.568;13.364;2023-05-07T06:02:56;7.37;;;6.03;;
5040;SDS011;2539;52.568;13.364;2023-05-07T06:05:22;8.60;;;5.77;;
5040;SDS011;2539;52.568;13.364;2023-05-07T06:07:48;8.07;;;6.00;;
5040;SDS011;2539;52.568;13.364;2023-05-07T06:10:14;7.07;;;5.90;;
5040;SDS011;2539;52.568;13.364;2023-05-07T06:12:41;7.53;;;5.83;;
5040;SDS011;2539;52.568;13.364;2023-05-07T06:15:07;6.90;;;6.20;;
5040;SDS011;2539;52.568;13.364;2023-05-07T06:17:33;9.60;;;5.90;;
5040;SDS011;2539;52.568;13.364;2023-05-07T06:20:00;6.80;;;6.20;;
5040;SDS011;2539;52.568;13.364;2023-05-07T06:22:26;6.33;;;5.73;;
5040;SDS011;2539;52.568;13.364;2023-05-07T06:24:52;7.33;;;6.73;;
5040;SDS011;2539;52.568;13.364;2023-05-07T06:27:18;7.10;;;6.00;;
5040;SDS011;2539;52.568;13.364;2023-05-07T06:29:44;6.30;;;5.70;;
5040;SDS011;2539;52.568;13.364;2023-05-07T06:32:12;11.03;;;6.43;;
5040;SDS011;2539;52.568;13.364;2023-05-07T06:34:39;6.50;;;5.70;;
5040;SDS011;2539;52.568;13.364;2023-05-07T06:37:06;8.27;;;6.33;;
5040;SDS011;2539;52.568;13.364;2023-05-07T06:39:32;6.47;;;5.77;;
5040;SDS011;2539;52.568;13.364;2023-05-07T06:41:59;8.50;;;5.80;;
5040;SDS011;2539;52.568;13.364;2023-05-07T06:44:26;6.90;;;5.87;;
5040;SDS011;2539;52.568;13.364;2023-05-07T06:46:53;6.30;;;5.70;;
5040;SDS011;2539;52.568;13.364;2023-05-07T06:49:19;5.77;;;5.27;;
5040;SDS011;2539;52.568;13.364;2023-05-07T06:51:46;5.67;;;5.17;;
5040;SDS011;2539;52.568;13.364;2023-05-07T06:54:12;6.23;;;5.20;;
5040;SDS011;2539;52.568;13.364;2023-05-07T06:56:39;7.90;;;5.60;;
5040;SDS011;2539;52.568;13.364;2023-05-07T06:59:05;8.23;;;5.50;;
5040;SDS011;2539;52.568;13.364;2023-05-07T07:01:32;7.33;;;5.50;;
5040;SDS011;2539;52.568;13.364;2023-05-07T07:03:58;11.63;;;6.00;;
5040;SDS011;2539;52.568;13.364;2023-05-07T07:06:25;5.30;;;4.60;;
5040;SDS011;2539;52.568;13.364;2023-05-07T07:08:51;5.33;;;4.83;;
5040;SDS011;2539;52.568;13.364;2023-05-07T07:11:17;7.07;;;5.23;;
5040;SDS011;2539;52.568;13.364;2023-05-07T07:13:43;5.40;;;4.90;;
5040;SDS011;2539;52.568;13.364;2023-05-07T07:16:10;5.47;;;4.97;;
5040;SDS011;2539;52.568;13.364;2023-05-07T07:18:36;6.27;;;5.17;;
5040;SDS011;2539;52.568;13.364;2023-05-07T07:21:02;5.27;;;4.77;;
5040;SDS011;2539;52.568;13.364;2023-05-07T07:23:29;5.73;;;5.20;;
5040;SDS011;2539;52.568;13.364;2023-05-07T07:25:55;6.40;;;5.50;;
5040;SDS011;2539;52.568;13.364;2023-05-07T07:28:22;11.83;;;5.30;;
5040;SDS011;2539;52.568;13.364;2023-05-07T07:30:48;4.60;;;4.13;;
5040;SDS011;2539;52.568;13.364;2023-05-07T07:33:16;4.83;;;4.03;;
5040;SDS011;2539;52.568;13.364;2023-05-07T07:35:42;5.10;;;4.60;;
5040;SDS011;2539;52.568;13.364;2023-05-07T07:38:08;5.50;;;4.90;;
5040;SDS011;2539;52.568;13.364;2023-05-07T07:40:35;5.30;;;4.40;;
5040;SDS011;2539;52.568;13.364;2023-05-07T07:43:01;4.70;;;4.30;;
5040;SDS011;2539;52.568;13.364;2023-05-07T07:45:27;4.70;;;4.27;;
5040;SDS011;2539;52.568;13.364;2023-05-07T07:47:53;4.43;;;3.80;;
5040;SDS011;2539;52.568;13.364;2023-05-07T07:50:20;4.80;;;3.90;;
5040;SDS011;2539;52.568;13.364;2023-05-07T07:52:48;4.30;;;3.90;;
5040;SDS011;2539;52.568;13.364;2023-05-07T07:55:14;4.77;;;4.30;;
5040;SDS011;2539;52.568;13.364;2023-05-07T07:57:46;5.10;;;4.60;;
5040;SDS011;2539;52.568;13.364;2023-05-07T08:00:12;4.60;;;3.60;;
5040;SDS011;2539;52.568;13.364;2023-05-07T08:02:39;4.37;;;3.97;;
5040;SDS011;2539;52.568;13.364;2023-05-07T08:05:06;4.50;;;3.77;;
5040;SDS011;2539;52.568;13.364;2023-05-07T08:07:33;4.83;;;3.60;;
5040;SDS011;2539;52.568;13.364;2023-05-07T08:09:58;4.37;;;3.97;;
5040;SDS011;2539;52.568;13.364;2023-05-07T08:12:24;3.40;;;3.10;;
5040;SDS011;2539;52.568;13.364;2023-05-07T08:14:50;4.67;;;3.50;;
5040;SDS011;2539;52.568;13.364;2023-05-07T08:17:16;3.53;;;3.23;;
5040;SDS011;2539;52.568;13.364;2023-05-07T08:19:42;5.33;;;3.27;;
5040;SDS011;2539;52.568;13.364;2023-05-07T08:22:10;5.30;;;3.10;;
5040;SDS011;2539;52.568;13.364;2023-05-07T08:24:37;3.83;;;3.53;;
5040;SDS011;2539;52.568;13.364;2023-05-07T08:27:03;21.20;;;19.13;;
5040;SDS011;2539;52.568;13.364;2023-05-07T08:29:29;4.13;;;3.53;;
5040;SDS011;2539;52.568;13.364;2023-05-07T08:31:57;4.50;;;3.67;;
5040;SDS011;2539;52.568;13.364;2023-05-07T08:34:23;4.70;;;3.23;;
5040;SDS011;2539;52.568;13.364;2023-05-07T08:36:49;3.67;;;3.07;;
5040;SDS011;2539;52.568;13.364;2023-05-07T08:39:15;3.20;;;2.70;;
5040;SDS011;2539;52.568;13.364;2023-05-07T08:41:44;3.97;;;3.63;;
5040;SDS011;2539;52.568;13.364;2023-05-07T08:44:11;3.20;;;2.90;;
5040;SDS011;2539;52.568;13.364;2023-05-07T08:46:39;5.43;;;3.97;;
5040;SDS011;2539;52.568;13.364;2023-05-07T08:49:07;4.17;;;3.77;;
5040;SDS011;2539;52.568;13.364;2023-05-07T08:51:33;3.73;;;3.40;;
5040;SDS011;2539;52.568;13.364;2023-05-07T08:54:01;3.60;;;3.03;;
5040;SDS011;2539;52.568;13.364;2023-05-07T08:56:27;4.43;;;2.77;;
5040;SDS011;2539;52.568;13.364;2023-05-07T08:58:53;3.60;;;3.30;;
5040;SDS011;2539;52.568;13.364;2023-05-07T09:01:24;4.00;;;2.80;;
5040;SDS011;2539;52.568;13.364;2023-05-07T09:03:51;3.63;;;2.60;;
5040;SDS011;2539;52.568;13.364;2023-05-07T09:06:17;4.30;;;3.17;;
5040;SDS011;2539;52.568;13.364;2023-05-07T09:08:50;4.03;;;2.53;;
5040;SDS011;2539;52.568;13.364;2023-05-07T09:11:19;5.00;;;2.97;;
5040;SDS011;2539;52.568;13.364;2023-05-07T09:13:46;4.90;;;3.87;;
5040;SDS011;2539;52.568;13.364;2023-05-07T09:16:12;4.23;;;3.23;;
5040;SDS011;2539;52.568;13.364;2023-05-07T09:18:42;3.10;;;2.70;;
5040;SDS011;2539;52.568;13.364;2023-05-07T09:21:09;4.87;;;2.97;;
5040;SDS011;2539;52.568;13.364;2023-05-07T09:23:43;5.90;;;3.00;;
5040;SDS011;2539;52.568;13.364;2023-05-07T09:26:09;5.93;;;2.60;;
5040;SDS011;2539;52.568;13.364;2023-05-07T09:28:38;4.40;;;2.57;;
5040;SDS011;2539;52.568;13.364;2023-05-07T09:31:06;4.43;;;2.83;;
5040;SDS011;2539;52.568;13.364;2023-05-07T09:33:32;4.47;;;2.80;;
5040;SDS011;2539;52.568;13.364;2023-05-07T09:36:01;4.43;;;3.00;;
5040;SDS011;2539;52.568;13.364;2023-05-07T09:38:28;2.97;;;2.67;;
5040;SDS011;2539;52.568;13.364;2023-05-07T09:41:05;3.40;;;2.70;;
5040;SDS011;2539;52.568;13.364;2023-05-07T09:43:33;3.00;;;2.30;;
5040;SDS011;2539;52.568;13.364;2023-05-07T09:46:02;3.50;;;3.20;;
5040;SDS011;2539;52.568;13.364;2023-05-07T09:48:32;2.57;;;2.37;;
5040;SDS011;2539;52.568;13.364;2023-05-07T09:51:06;3.43;;;3.00;;
5040;SDS011;2539;52.568;13.364;2023-05-07T09:53:41;2.60;;;2.30;;
5040;SDS011;2539;52.568;13.364;2023-05-07T09:56:08;3.33;;;2.30;;
5040;SDS011;2539;52.568;13.364;2023-05-07T09:58:36;4.80;;;3.47;;
5040;SDS011;2539;52.568;13.364;2023-05-07T10:01:04;4.20;;;2.80;;
5040;SDS011;2539;52.568;13.364;2023-05-07T10:03:32;5.10;;;2.37;;
5040;SDS011;2539;52.568;13.364;2023-05-07T10:06:01;3.17;;;2.50;;
5040;SDS011;2539;52.568;13.364;2023-05-07T10:08:30;3.77;;;2.70;;
5040;SDS011;2539;52.568;13.364;2023-05-07T10:10:57;2.57;;;2.37;;
5040;SDS011;2539;52.568;13.364;2023-05-07T10:13:23;3.17;;;2.37;;
5040;SDS011;2539;52.568;13.364;2023-05-07T10:15:50;2.80;;;2.13;;
5040;SDS011;2539;52.568;13.364;2023-05-07T10:18:17;2.47;;;2.07;;
5040;SDS011;2539;52.568;13.364;2023-05-07T10:20:48;2.67;;;2.30;;
5040;SDS011;2539;52.568;13.364;2023-05-07T10:23:16;2.43;;;2.00;;
5040;SDS011;2539;52.568;13.364;2023-05-07T10:25:48;2.87;;;2.20;;
5040;SDS011;2539;52.568;13.364;2023-05-07T10:28:15;3.57;;;2.57;;
5040;SDS011;2539;52.568;13.364;2023-05-07T10:30:48;2.60;;;2.17;;
5040;SDS011;2539;52.568;13.364;2023-05-07T10:33:27;2.80;;;2.50;;
5040;SDS011;2539;52.568;13.364;2023-05-07T10:35:58;4.13;;;2.50;;
5040;SDS011;2539;52.568;13.364;2023-05-07T10:38:27;3.00;;;2.33;;
5040;SDS011;2539;52.568;13.364;2023-05-07T10:40:54;3.40;;;1.90;;
5040;SDS011;2539;52.568;13.364;2023-05-07T10:43:20;2.57;;;2.07;;
5040;SDS011;2539;52.568;13.364;2023-05-07T10:51:26;2.50;;;2.00;;
5040;SDS011;2539;52.568;13.364;2023-05-07T10:54:18;2.77;;;2.10;;
5040;SDS011;2539;52.568;13.364;2023-05-07T10:56:41;3.57;;;1.80;;
5040;SDS011;2539;52.568;13.364;2023-05-07T11:02:04;2.20;;;1.93;;
5040;SDS011;2539;52.568;13.364;2023-05-07T11:04:33;2.33;;;2.13;;
5040;SDS011;2539;52.568;13.364;2023-05-07T11:10:11;3.77;;;2.27;;
5040;SDS011;2539;52.568;13.364;2023-05-07T11:15:06;3.00;;;2.50;;
5040;SDS011;2539;52.568;13.364;2023-05-07T11:17:53;3.67;;;2.60;;
5040;SDS011;2539;52.568;13.364;2023-05-07T11:20:20;3.00;;;2.33;;
5040;SDS011;2539;52.568;13.364;2023-05-07T11:26:04;2.30;;;1.80;;
5040;SDS011;2539;52.568;13.364;2023-05-07T11:28:38;2.30;;;1.90;;
5040;SDS011;2539;52.568;13.364;2023-05-07T11:31:06;2.57;;;2.00;;
5040;SDS011;2539;52.568;13.364;2023-05-07T11:33:33;2.40;;;2.07;;
5040;SDS011;2539;52.568;13.364;2023-05-07T11:36:00;2.67;;;2.23;;
5040;SDS011;2539;52.568;13.364;2023-05-07T11:38:30;2.83;;;2.10;;
5040;SDS011;2539;52.568;13.364;2023-05-07T11:41:00;3.50;;;2.07;;
5040;SDS011;2539;52.568;13.364;2023-05-07T11:43:27;2.30;;;1.83;;
5040;SDS011;2539;52.568;13.364;2023-05-07T11:45:53;5.47;;;2.40;;
5040;SDS011;2539;52.568;13.364;2023-05-07T11:48:20;2.53;;;2.03;;
5040;SDS011;2539;52.568;13.364;2023-05-07T11:50:51;3.00;;;2.10;;
5040;SDS011;2539;52.568;13.364;2023-05-07T11:53:18;3.10;;;2.03;;
5040;SDS011;2539;52.568;13.364;2023-05-07T11:55:45;5.67;;;2.80;;
5040;SDS011;2539;52.568;13.364;2023-05-07T11:58:11;3.90;;;2.30;;
5040;SDS011;2539;52.568;13.364;2023-05-07T12:00:51;2.90;;;2.27;;
5040;SDS011;2539;52.568;13.364;2023-05-07T12:03:19;3.60;;;2.50;;
5040;SDS011;2539;52.568;13.364;2023-05-07T12:05:46;2.10;;;1.80;;
5040;SDS011;2539;52.568;13.364;2023-05-07T12:08:16;3.27;;;2.50;;
5040;SDS011;2539;52.568;13.364;2023-05-07T12:10:44;3.20;;;2.20;;
5040;SDS011;2539;52.568;13.364;2023-05-07T12:13:14;2.40;;;2.00;;
5040;SDS011;2539;52.568;13.364;2023-05-07T12:15:50;7.33;;;2.23;;
5040;SDS011;2539;52.568;13.364;2023-05-07T12:18:18;2.67;;;1.70;;
5040;SDS011;2539;52.568;13.364;2023-05-07T12:20:45;2.70;;;2.03;;
5040;SDS011;2539;52.568;13.364;2023-05-07T12:23:11;2.87;;;1.90;;
5040;SDS011;2539;52.568;13.364;2023-05-07T12:25:38;2.33;;;1.97;;
5040;SDS011;2539;52.568;13.364;2023-05-07T12:28:05;2.80;;;1.93;;
5040;SDS011;2539;52.568;13.364;2023-05-07T12:30:39;2.73;;;1.80;;
5040;SDS011;2539;52.568;13.364;2023-05-07T12:33:06;3.80;;;2.30;;
5040;SDS011;2539;52.568;13.364;2023-05-07T12:35:37;3.50;;;1.83;;
5040;SDS011;2539;52.568;13.364;2023-05-07T12:38:09;2.10;;;1.67;;
5040;SDS011;2539;52.568;13.364;2023-05-07T12:40:40;2.73;;;1.93;;
5040;SDS011;2539;52.568;13.364;2023-05-07T12:43:08;4.83;;;2.23;;
5040;SDS011;2539;52.568;13.364;2023-05-07T12:45:51;2.30;;;1.87;;
5040;SDS011;2539;52.568;13.364;2023-05-07T12:48:20;2.53;;;1.87;;
5040;SDS011;2539;52.568;13.364;2023-05-07T12:50:51;2.40;;;1.80;;
5040;SDS011;2539;52.568;13.364;2023-05-07T12:53:19;2.10;;;1.60;;
5040;SDS011;2539;52.568;13.364;2023-05-07T12:55:48;3.53;;;2.10;;
5040;SDS011;2539;52.568;13.364;2023-05-07T12:58:25;2.20;;;1.60;;
5040;SDS011;2539;52.568;13.364;2023-05-07T13:00:54;3.57;;;1.80;;
5040;SDS011;2539;52.568;13.364;2023-05-07T13:03:28;2.50;;;1.77;;
5040;SDS011;2539;52.568;13.364;2023-05-07T13:05:57;4.57;;;2.33;;
5040;SDS011;2539;52.568;13.364;2023-05-07T13:08:29;2.97;;;2.00;;
5040;SDS011;2539;52.568;13.364;2023-05-07T13:11:03;4.03;;;1.60;;
5040;SDS011;2539;52.568;13.364;2023-05-07T13:13:30;2.70;;;2.13;;
5040;SDS011;2539;52.568;13.364;2023-05-07T13:15:57;3.20;;;2.00;;
5040;SDS011;2539;52.568;13.364;2023-05-07T13:18:26;5.00;;;2.03;;
5040;SDS011;2539;52.568;13.364;2023-05-07T13:20:55;2.27;;;1.93;;
5040;SDS011;2539;52.568;13.364;2023-05-07T13:23:21;4.90;;;2.20;;
5040;SDS011;2539;52.568;13.364;2023-05-07T13:25:48;2.40;;;1.77;;
5040;SDS011;2539;52.568;13.364;2023-05-07T13:28:14;2.20;;;1.73;;
5040;SDS011;2539;52.568;13.364;2023-05-07T13:30:41;2.90;;;1.60;;
5040;SDS011;2539;52.568;13.364;2023-05-07T13:33:07;1.97;;;1.63;;
5040;SDS011;2539;52.568;13.364;2023-05-07T13:35:34;2.50;;;1.90;;
5040;SDS011;2539;52.568;13.364;2023-05-07T13:38:00;2.93;;;2.00;;
5040;SDS011;2539;52.568;13.364;2023-05-07T13:40:27;3.63;;;1.70;;
5040;SDS011;2539;52.568;13.364;2023-05-07T13:42:53;2.70;;;1.80;;
5040;SDS011;2539;52.568;13.364;2023-05-07T13:45:20;2.60;;;1.67;;
5040;SDS011;2539;52.568;13.364;2023-05-07T13:47:46;2.70;;;2.00;;
5040;SDS011;2539;52.568;13.364;2023-05-07T13:50:15;6.60;;;1.63;;
5040;SDS011;2539;52.568;13.364;2023-05-07T13:52:41;2.93;;;1.70;;
5040;SDS011;2539;52.568;13.364;2023-05-07T13:55:19;9.10;;;2.10;;
5040;SDS011;2539;52.568;13.364;2023-05-07T13:57:47;2.30;;;1.77;;
5040;SDS011;2539;52.568;13.364;2023-05-07T14:00:13;3.50;;;2.13;;
5040;SDS011;2539;52.568;13.364;2023-05-07T14:02:41;2.63;;;1.80;;
5040;SDS011;2539;52.568;13.364;2023-05-07T14:05:07;2.20;;;1.60;;
5040;SDS011;2539;52.568;13.364;2023-05-07T14:07:34;2.73;;;1.77;;
5040;SDS011;2539;52.568;13.364;2023-05-07T14:09:59;2.00;;;1.70;;
5040;SDS011;2539;52.568;13.364;2023-05-07T14:12:25;2.57;;;1.60;;
5040;SDS011;2539;52.568;13.364;2023-05-07T14:14:51;3.03;;;2.13;;
5040;SDS011;2539;52.568;13.364;2023-05-07T14:17:17;2.40;;;1.80;;
5040;SDS011;2539;52.568;13.364;2023-05-07T14:19:44;4.03;;;2.50;;
5040;SDS011;2539;52.568;13.364;2023-05-07T14:22:10;3.00;;;2.33;;
5040;SDS011;2539;52.568;13.364;2023-05-07T14:24:36;3.73;;;2.00;;
5040;SDS011;2539;52.568;13.364;2023-05-07T14:27:04;2.40;;;1.90;;
5040;SDS011;2539;52.568;13.364;2023-05-07T14:29:31;2.60;;;2.00;;
5040;SDS011;2539;52.568;13.364;2023-05-07T14:31:57;3.20;;;2.50;;
5040;SDS011;2539;52.568;13.364;2023-05-07T14:34:23;2.20;;;1.80;;
5040;SDS011;2539;52.568;13.364;2023-05-07T14:36:50;2.50;;;1.70;;
5040;SDS011;2539;52.568;13.364;2023-05-07T14:39:17;2.33;;;1.90;;
5040;SDS011;2539;52.568;13.364;2023-05-07T14:41:43;3.67;;;1.90;;
5040;SDS011;2539;52.568;13.364;2023-05-07T14:44:10;7.90;;;2.00;;
5040;SDS011;2539;52.568;13.364;2023-05-07T14:46:36;2.03;;;1.60;;
5040;SDS011;2539;52.568;13.364;2023-05-07T14:49:02;2.37;;;2.03;;
5040;SDS011;2539;52.568;13.364;2023-05-07T14:51:28;2.57;;;1.93;;
5040;SDS011;2539;52.568;13.364;2023-05-07T14:53:55;2.50;;;1.70;;
5040;SDS011;2539;52.568;13.364;2023-05-07T14:56:21;2.00;;;1.73;;
5040;SDS011;2539;52.568;13.364;2023-05-07T14:58:48;2.73;;;2.00;;
5040;SDS011;2539;52.568;13.364;2023-05-07T15:01:14;3.10;;;1.80;;
5040;SDS011;2539;52.568;13.364;2023-05-07T15:03:41;2.60;;;1.90;;
5040;SDS011;2539;52.568;13.364;2023-05-07T15:06:07;2.27;;;1.87;;
5040;SDS011;2539;52.568;13.364;2023-05-07T15:08:33;3.90;;;2.10;;
5040;SDS011;2539;52.568;13.364;2023-05-07T15:10:59;3.07;;;2.23;;
5040;SDS011;2539;52.568;13.364;2023-05-07T15:13:26;3.57;;;2.53;;
5040;SDS011;2539;52.568;13.364;2023-05-07T15:15:52;3.20;;;2.00;;
5040;SDS011;2539;52.568;13.364;2023-05-07T15:18:18;3.67;;;1.87;;